Calgary (YYC/CYYC)

Information

Location
Calgary, AB, Canada
Local Time
19:43 / 7:43 pm
GMT Time
02:43 / 2:43 am
Gates
Unassigned
No FAA reported delays
METAR CYYC 170200Z 17004KT 150V310 15SM BKN150 OVC230 04/M05 A2970 RMK AC6CI2 PRESFR SLP105
TAF TAF CYYC 162338Z 1700/1724 25012KT P6SM SCT150 BKN240 BECMG 1714/1716 18010KT RMK NXT FCST BY 170300Z
  • No charts available